Time;durP1;ratioP1;P1;durP2;ratioP2;P2;SDS_P1;SDS_P2;PMS_P1;PMS_P2;Temp;Humidity;BMP_temperature;BMP_pressure;BME280_temperature;BME280_humidity;BME280_pressure;Samples;Min_cycle;Max_cycle;Signal;HPM_P1;HPM_P2
2023/04/28 00:00:04;;;;;;;;;;;;;;;-141.59;100.00;61776.25;5031631;28;19949;-77
2023/04/28 00:02:33;;;;;;;;;;;;;;;-141.59;100.00;61776.25;5031551;28;19980;-78
2023/04/28 00:04:59;;;;;;;;;;;;;;;-141.59;100.00;61776.25;5026658;28;19951;-78
2023/04/28 00:07:26;;;;;;;;;;;;;;;-141.59;100.00;61776.25;5046269;28;19952;-77
2023/04/28 00:09:53;;;;;;;;;;;;;;;-141.59;100.00;61776.25;5044588;28;19948;-77
2023/04/28 00:12:21;;;;;;;;;;;;;;;-141.59;100.00;61776.25;5047958;28;19953;-77
2023/04/28 00:14:48;;;;;;;;;;;;;;;-141.59;100.00;61776.25;5028803;28;19994;-78
2023/04/28 00:17:15;;;;;;;;;;;;;;;-141.59;100.00;61776.25;5044431;28;19974;-77
2023/04/28 00:19:41;;;;;;;;;;;;;;;-141.59;100.00;61776.25;5047003;28;19963;-77
2023/04/28 00:22:08;;;;;;;;;;;;;;;-141.59;100.00;61776.25;5044676;28;20011;-77
2023/04/28 00:24:35;;;;;;;;;;;;;;;-141.59;100.00;61776.25;5028266;28;19956;-77
2023/04/28 00:27:02;;;;;;;;;;;;;;;-141.59;100.00;61776.25;5048698;28;19984;-77
2023/04/28 00:29:30;;;;;;;;;;;;;;;-141.59;100.00;61776.25;5030634;28;19955;-77
2023/04/28 00:31:57;;;;;;;;;;;;;;;-141.59;100.00;61776.25;5026181;28;20035;-79
2023/04/28 00:34:23;;;;;;;;;;;;;;;-141.59;100.00;61776.25;5030428;28;19957;-77
2023/04/28 00:36:50;;;;;;;;;;;;;;;-141.59;100.00;61776.25;5038151;28;19950;-78
2023/04/28 00:39:17;;;;;;;;;;;;;;;-141.59;100.00;61776.25;5046091;28;19959;-77
2023/04/28 00:41:44;;;;;;;;;;;;;;;-141.59;100.00;61776.25;5040678;28;20010;-77
2023/04/28 00:44:11;;;;;;;;;;;;;;;-141.59;100.00;61776.25;5042523;28;20011;-77
2023/04/28 00:46:39;;;;;;;;;;;;;;;-141.59;100.00;61776.25;5028604;28;20021;-78
2023/04/28 00:49:06;;;;;;;;;;;;;;;-141.59;100.00;61776.25;5046109;28;19925;-77
2023/04/28 00:51:33;;;;;;;;;;;;;;;-141.59;100.00;61776.25;5046777;28;20014;-77
2023/04/28 00:54:00;;;;;;;;;;;;;;;-141.59;100.00;61776.25;5047873;28;19952;-77
2023/04/28 00:56:29;;;;;;;;;;;;;;;-141.59;100.00;61776.25;5039067;28;19951;-77
2023/04/28 00:58:56;;;;;;;;;;;;;;;-141.59;100.00;61776.25;5045333;28;19990;-77
2023/04/28 01:01:23;;;;;;;;;;;;;;;-141.59;100.00;61776.25;5045424;28;19950;-79
2023/04/28 01:03:51;;;;;;;;;;;;;;;-141.59;100.00;61776.25;5026772;28;19970;-78
2023/04/28 01:06:20;;;;;;;;;;;;;;;-141.59;100.00;61776.25;5046216;28;19950;-77
2023/04/28 01:08:48;;;;;;;;;;;;;;;-141.59;100.00;61776.25;5045789;28;19949;-77
2023/04/28 01:11:16;;;;;;;;;;;;;;;-141.59;100.00;61776.25;5029029;28;20186;-77
2023/04/28 01:14:06;;;;;;;;;;;;;;;-141.59;100.00;61776.25;5029655;28;19970;-77
2023/04/28 01:16:37;;;;;;;;;;;;;;;-141.59;100.00;61776.25;5034537;28;19957;-77
2023/04/28 01:19:07;;;;;;;;;;;;;;;-141.59;100.00;61776.25;5028411;28;19960;-77
2023/04/28 01:21:36;;;;;;;;;;;;;;;-141.59;100.00;61776.25;5045070;28;19950;-77
2023/04/28 01:24:21;;;;;;;;;;;;;;;-141.59;100.00;61776.25;5030029;28;19941;-77
2023/04/28 01:26:49;;;;;;;;;;;;;;;-141.59;100.00;61776.25;5028854;28;19959;-77
2023/04/28 01:29:16;;;;;;;;;;;;;;;-141.59;100.00;61776.25;5042376;28;19954;-77
2023/04/28 01:31:43;;;;;;;;;;;;;;;-141.59;100.00;61776.25;5043830;28;19965;-77
2023/04/28 01:34:10;;;;;;;;;;;;;;;-141.59;100.00;61776.25;5040759;28;20037;-77
2023/04/28 01:36:36;;;;;;;;;;;;;;;-141.59;100.00;61776.25;5026054;28;19985;-77
2023/04/28 01:39:03;;;;;;;;;;;;;;;-141.59;100.00;61776.25;5029222;28;19957;-78
2023/04/28 01:41:33;;;;;;;;;;;;;;;-141.59;100.00;61776.25;5037817;28;19954;-77
2023/04/28 01:43:59;;;;;;;;;;;;;;;-141.59;100.00;61776.25;5026919;28;19962;-77
2023/04/28 01:46:26;;;;;;;;;;;;;;;-141.59;100.00;61776.25;5041265;28;19948;-77
2023/04/28 01:48:53;;;;;;;;;;;;;;;-141.59;100.00;61776.25;5042478;28;19956;-77
2023/04/28 01:51:20;;;;;;;;;;;;;;;-141.59;100.00;61776.25;5040831;28;20048;-77
2023/04/28 01:53:47;;;;;;;;;;;;;;;-141.59;100.00;61776.25;5026276;28;19949;-77
2023/04/28 01:56:13;;;;;;;;;;;;;;;-141.59;100.00;61776.25;5024129;28;20016;-82
2023/04/28 01:58:42;;;;;;;;;;;;;;;-141.59;100.00;61776.25;5024074;28;19992;-82
2023/04/28 02:01:09;;;;;;;;;;;;;;;-141.59;100.00;61776.25;5042410;28;19968;-81
2023/04/28 02:03:36;;;;;;;;;;;;;;;-141.59;100.00;61776.25;5028969;28;19929;-82
2023/04/28 02:06:03;;;;;;;;;;;;;;;-141.59;100.00;61776.25;5028160;28;20015;-81
2023/04/28 02:08:30;;;;;;;;;;;;;;;-141.59;100.00;61776.25;5038749;28;19929;-82
2023/04/28 02:10:57;;;;;;;;;;;;;;;-141.59;100.00;61776.25;5038540;28;19929;-81
2023/04/28 02:13:24;;;;;;;;;;;;;;;-141.59;100.00;61776.25;5041590;28;19983;-82
2023/04/28 02:15:54;;;;;;;;;;;;;;;-141.59;100.00;61776.25;5033083;28;19926;-82
2023/04/28 02:18:21;;;;;;;;;;;;;;;-141.59;100.00;61776.25;5023478;28;19988;-82
2023/04/28 02:20:48;;;;;;;;;;;;;;;-141.59;100.00;61776.25;5023256;28;19936;-82
2023/04/28 02:23:14;;;;;;;;;;;;;;;-141.59;100.00;61776.25;5040264;28;19925;-82
2023/04/28 02:25:41;;;;;;;;;;;;;;;-141.59;100.00;61776.25;5027322;28;19925;-82
2023/04/28 02:28:08;;;;;;;;;;;;;;;-141.59;100.00;61776.25;5043664;28;20011;-82
2023/04/28 02:30:34;;;;;;;;;;;;;;;-141.59;100.00;61776.25;5040301;28;19932;-82
2023/04/28 02:33:03;;;;;;;;;;;;;;;-141.59;100.00;61776.25;5030082;28;19969;-82
2023/04/28 02:35:29;;;;;;;;;;;;;;;-141.59;100.00;61776.25;5030437;28;20062;-81
2023/04/28 02:37:56;;;;;;;;;;;;;;;-141.59;100.00;61776.25;5042923;28;19997;-82
2023/04/28 02:40:23;;;;;;;;;;;;;;;-141.59;100.00;61776.25;5038069;28;19937;-82
2023/04/28 02:42:50;;;;;;;;;;;;;;;-141.59;100.00;61776.25;5042292;28;19939;-82
2023/04/28 02:45:17;;;;;;;;;;;;;;;-141.59;100.00;61776.25;5046310;28;19964;-82
2023/04/28 02:47:44;;;;;;;;;;;;;;;-141.59;100.00;61776.25;5027159;28;19925;-81
2023/04/28 02:50:12;;;;;;;;;;;;;;;-141.59;100.00;61776.25;5041760;28;19925;-82
2023/04/28 02:52:39;;;;;;;;;;;;;;;-141.59;100.00;61776.25;5032993;28;19932;-82
2023/04/28 02:55:06;;;;;;;;;;;;;;;-141.59;100.00;61776.25;5024847;28;19933;-82
2023/04/28 02:57:33;;;;;;;;;;;;;;;-141.59;100.00;61776.25;5043960;28;19933;-81
2023/04/28 02:59:59;;;;;;;;;;;;;;;-141.59;100.00;61776.25;5043310;28;19929;-82
2023/04/28 03:02:31;;;;;;;;;;;;;;;-141.59;100.00;61776.25;5026778;28;19925;-82
2023/04/28 03:04:57;;;;;;;;;;;;;;;-141.59;100.00;61776.25;5029479;28;19967;-82
2023/04/28 03:07:25;;;;;;;;;;;;;;;-141.59;100.00;61776.25;5041439;28;19950;-82
2023/04/28 03:09:52;;;;;;;;;;;;;;;-141.59;100.00;61776.25;5044138;28;19993;-81
2023/04/28 03:12:19;;;;;;;;;;;;;;;-141.59;100.00;61776.25;5034566;28;19963;-81
2023/04/28 03:14:47;;;;;;;;;;;;;;;-141.59;100.00;61776.25;5044624;28;19970;-82
2023/04/28 03:17:15;;;;;;;;;;;;;;;-141.59;100.00;61776.25;5045020;28;19956;-81
2023/04/28 03:19:42;;;;;;;;;;;;;;;-141.59;100.00;61776.25;5028908;28;19970;-82
2023/04/28 03:22:09;;;;;;;;;;;;;;;-141.59;100.00;61776.25;5029063;28;19954;-82
2023/04/28 03:24:37;;;;;;;;;;;;;;;-141.59;100.00;61776.25;5051455;28;20023;-82
2023/04/28 03:27:04;;;;;;;;;;;;;;;-141.59;100.00;61776.25;5029337;28;20032;-82
2023/04/28 03:29:31;;;;;;;;;;;;;;;-141.59;100.00;61776.25;5030090;28;19932;-82
2023/04/28 03:31:58;;;;;;;;;;;;;;;-141.59;100.00;61776.25;5041297;28;19925;-82
2023/04/28 03:34:25;;;;;;;;;;;;;;;-141.59;100.00;61776.25;5046455;28;19975;-82
2023/04/28 03:36:51;;;;;;;;;;;;;;;-141.59;100.00;61776.25;5031554;28;19932;-82
2023/04/28 03:39:25;;;;;;;;;;;;;;;-141.59;100.00;61776.25;5030764;28;19968;-82
2023/04/28 03:41:53;;;;;;;;;;;;;;;-141.59;100.00;61776.25;5045455;28;19925;-82
2023/04/28 03:44:31;;;;;;;;;;;;;;;-141.59;100.00;61776.25;5027179;28;20043;-82
2023/04/28 03:46:58;;;;;;;;;;;;;;;-141.59;100.00;61776.25;5031469;28;19947;-82
2023/04/28 03:49:25;;;;;;;;;;;;;;;-141.59;100.00;61776.25;5043047;28;19957;-82
2023/04/28 03:51:53;;;;;;;;;;;;;;;-141.59;100.00;61776.25;5027087;28;20011;-81
2023/04/28 03:54:20;;;;;;;;;;;;;;;-141.59;100.00;61776.25;5047795;28;19960;-82
2023/04/28 03:56:47;;;;;;;;;;;;;;;-141.59;100.00;61776.25;5041934;28;19954;-82
2023/04/28 03:59:15;;;;;;;;;;;;;;;-141.59;100.00;61776.25;5053635;28;19982;-82
2023/04/28 04:01:42;;;;;;;;;;;;;;;-141.59;100.00;61776.25;5015021;28;20065;-81
2023/04/28 04:04:11;;;;;;;;;;;;;;;-141.59;100.00;61776.25;5047140;28;19971;-82
2023/04/28 04:06:38;;;;;;;;;;;;;;;-141.59;100.00;61776.25;5019778;28;19993;-82
2023/04/28 04:09:04;;;;;;;;;;;;;;;-141.59;100.00;61776.25;5043918;28;19949;-81
2023/04/28 04:11:32;;;;;;;;;;;;;;;-141.59;100.00;61776.25;5045420;28;20081;-82
2023/04/28 04:13:59;;;;;;;;;;;;;;;-141.59;100.00;61776.25;5043863;28;19965;-82
2023/04/28 04:16:28;;;;;;;;;;;;;;;-141.59;100.00;61776.25;5047447;28;19952;-82
2023/04/28 04:18:56;;;;;;;;;;;;;;;-141.59;100.00;61776.25;5042061;28;19948;-81
2023/04/28 04:21:29;;;;;;;;;;;;;;;-141.59;100.00;61776.25;5045954;28;19950;-81
2023/04/28 04:23:58;;;;;;;;;;;;;;;-141.59;100.00;61776.25;5044654;28;19962;-82
2023/04/28 04:26:25;;;;;;;;;;;;;;;-141.59;100.00;61776.25;5042627;28;19950;-82
2023/04/28 04:28:51;;;;;;;;;;;;;;;-141.59;100.00;61776.25;5041845;28;20066;-82
2023/04/28 04:31:21;;;;;;;;;;;;;;;-141.59;100.00;61776.25;5042951;28;19949;-82
2023/04/28 04:33:49;;;;;;;;;;;;;;;-141.59;100.00;61776.25;5030778;28;19963;-82
2023/04/28 04:36:18;;;;;;;;;;;;;;;-141.59;100.00;61776.25;5046936;28;19949;-82
2023/04/28 04:38:45;;;;;;;;;;;;;;;-141.59;100.00;61776.25;5042083;28;19949;-82
2023/04/28 04:41:19;;;;;;;;;;;;;;;-141.59;100.00;61776.25;5044383;28;19955;-83
2023/04/28 04:43:46;;;;;;;;;;;;;;;-141.59;100.00;61776.25;5047289;28;20107;-82
2023/04/28 04:46:13;;;;;;;;;;;;;;;-141.59;100.00;61776.25;5047808;28;19950;-82
2023/04/28 04:48:40;;;;;;;;;;;;;;;-141.59;100.00;61776.25;5030255;28;19997;-82
2023/04/28 04:51:08;;;;;;;;;;;;;;;-141.59;100.00;61776.25;5048466;28;19954;-82
2023/04/28 04:53:36;;;;;;;;;;;;;;;-141.59;100.00;61776.25;5043189;28;19978;-82
2023/04/28 04:56:02;;;;;;;;;;;;;;;-141.59;100.00;61776.25;5024052;28;20161;-82
2023/04/28 04:58:31;;;;;;;;;;;;;;;-141.59;100.00;61776.25;5024553;28;19954;-81
2023/04/28 05:01:27;;;;;;;;;;;;;;;-141.59;100.00;61776.25;5036137;28;19953;-82
2023/04/28 05:03:54;;;;;;;;;;;;;;;-141.59;100.00;61776.25;5030367;28;19961;-82
2023/04/28 05:06:22;;;;;;;;;;;;;;;-141.59;100.00;61776.25;5029449;28;19951;-81
2023/04/28 05:08:49;;;;;;;;;;;;;;;-141.59;100.00;61776.25;5035894;28;19950;-82
2023/04/28 05:11:16;;;;;;;;;;;;;;;-141.59;100.00;61776.25;5044189;28;19954;-82
2023/04/28 05:13:44;;;;;;;;;;;;;;;-141.59;100.00;61776.25;5030305;28;19988;-82
2023/04/28 05:16:12;;;;;;;;;;;;;;;-141.59;100.00;61776.25;5045935;28;19950;-82
2023/04/28 05:19:05;;;;;;;;;;;;;;;-141.59;100.00;61776.25;5027073;28;19959;-81
2023/04/28 05:21:33;;;;;;;;;;;;;;;-141.59;100.00;61776.25;5027830;28;19955;-82
2023/04/28 05:24:00;;;;;;;;;;;;;;;-141.59;100.00;61776.25;5019554;28;20002;-82
2023/04/28 05:26:27;;;;;;;;;;;;;;;-141.59;100.00;61776.25;5045360;28;19961;-82
2023/04/28 05:28:57;;;;;;;;;;;;;;;-141.59;100.00;61776.25;5043523;28;19949;-82
2023/04/28 05:31:25;;;;;;;;;;;;;;;-141.59;100.00;61776.25;5026977;28;19948;-82
2023/04/28 05:33:53;;;;;;;;;;;;;;;-141.59;100.00;61776.25;5029008;28;19944;-78
2023/04/28 05:36:19;;;;;;;;;;;;;;;-141.59;100.00;61776.25;5034906;28;20051;-77
2023/04/28 05:38:48;;;;;;;;;;;;;;;-141.59;100.00;61776.25;5027245;28;19959;-77
2023/04/28 05:41:14;;;;;;;;;;;;;;;-141.59;100.00;61776.25;5018962;28;19948;-77
2023/04/28 05:43:41;;;;;;;;;;;;;;;-141.59;100.00;61776.25;5041353;28;20042;-77
2023/04/28 05:46:09;;;;;;;;;;;;;;;-141.59;100.00;61776.25;5045845;28;20095;-78
2023/04/28 05:48:35;;;;;;;;;;;;;;;-141.59;100.00;61776.25;5038481;28;19946;-77
2023/04/28 05:51:02;;;;;;;;;;;;;;;-141.59;100.00;61776.25;5047984;28;19968;-77
2023/04/28 05:53:29;;;;;;;;;;;;;;;-141.59;100.00;61776.25;5026720;28;20013;-77
2023/04/28 05:55:59;;;;;;;;;;;;;;;-141.59;100.00;61776.25;5038490;28;19957;-77
2023/04/28 05:58:26;;;;;;;;;;;;;;;-141.59;100.00;61776.25;5040773;28;19964;-82
2023/04/28 06:00:53;;;;;;;;;;;;;;;-141.59;100.00;61776.25;5027548;28;20001;-82
2023/04/28 06:03:20;;;;;;;;;;;;;;;-141.59;100.00;61776.25;5041734;28;20044;-82
2023/04/28 06:05:47;;;;;;;;;;;;;;;-141.59;100.00;61776.25;5019335;28;19961;-81
2023/04/28 06:08:15;;;;;;;;;;;;;;;-141.59;100.00;61776.25;5039382;28;19957;-81
2023/04/28 06:10:41;;;;;;;;;;;;;;;-141.59;100.00;61776.25;5040385;28;19950;-82
2023/04/28 06:13:10;;;;;;;;;;;;;;;-141.59;100.00;61776.25;5025965;28;19953;-82
2023/04/28 06:15:36;;;;;;;;;;;;;;;-141.59;100.00;61776.25;5044781;28;20051;-81
2023/04/28 06:18:04;;;;;;;;;;;;;;;-141.59;100.00;61776.25;5034607;28;19949;-82
2023/04/28 06:20:31;;;;;;;;;;;;;;;-141.59;100.00;61776.25;5022369;28;19967;-82
2023/04/28 06:22:58;;;;;;;;;;;;;;;-141.59;100.00;61776.25;5026981;28;19966;-81
2023/04/28 06:25:25;;;;;;;;;;;;;;;-141.59;100.00;61776.25;5041646;28;19962;-82
2023/04/28 06:27:52;;;;;;;;;;;;;;;-141.59;100.00;61776.25;5044056;28;19957;-81
2023/04/28 06:30:21;;;;;;;;;;;;;;;-141.59;100.00;61776.25;5042324;28;20033;-82
2023/04/28 06:32:48;;;;;;;;;;;;;;;-141.59;100.00;61776.25;5017365;28;19960;-81
2023/04/28 06:35:15;;;;;;;;;;;;;;;-141.59;100.00;61776.25;5039757;28;20005;-82
2023/04/28 06:37:42;;;;;;;;;;;;;;;-141.59;100.00;61776.25;5023424;28;19992;-81
2023/04/28 06:40:09;;;;;;;;;;;;;;;-141.59;100.00;61776.25;5050961;28;19982;-82
2023/04/28 06:42:39;;;;;;;;;;;;;;;-141.59;100.00;61776.25;5043961;28;20052;-80
2023/04/28 06:45:11;;;;;;;;;;;;;;;-141.59;100.00;61776.25;5042395;28;19972;-82
2023/04/28 06:47:39;;;;;;;;;;;;;;;-141.59;100.00;61776.25;5031091;28;19958;-82
2023/04/28 06:50:09;;;;;;;;;;;;;;;-141.59;100.00;61776.25;5040890;28;19956;-82
2023/04/28 06:52:37;;;;;;;;;;;;;;;-141.59;100.00;61776.25;5046542;28;19968;-82
2023/04/28 06:55:04;;;;;;;;;;;;;;;-141.59;100.00;61776.25;5045007;28;19950;-82
2023/04/28 06:57:31;;;;;;;;;;;;;;;-141.59;100.00;61776.25;5043375;28;19950;-81
2023/04/28 06:59:58;;;;;;;;;;;;;;;-141.59;100.00;61776.25;5030687;28;19958;-82
2023/04/28 07:02:25;;;;;;;;;;;;;;;-141.59;100.00;61776.25;5031917;28;19965;-82
2023/04/28 07:04:54;;;;;;;;;;;;;;;-141.59;100.00;61776.25;5042070;28;19967;-82
2023/04/28 07:07:20;;;;;;;;;;;;;;;-141.59;100.00;61776.25;5026853;28;21179;-81
2023/04/28 07:09:47;;;;;;;;;;;;;;;-141.59;100.00;61776.25;5034125;28;20044;-82
2023/04/28 07:12:14;;;;;;;;;;;;;;;-141.59;100.00;61776.25;5024863;28;19969;-82
2023/04/28 07:14:41;;;;;;;;;;;;;;;-141.59;100.00;61776.25;5045872;28;19999;-83
2023/04/28 07:17:07;;;;;;;;;;;;;;;-141.59;100.00;61776.25;5029096;28;19963;-81
2023/04/28 07:19:34;;;;;;;;;;;;;;;-141.59;100.00;61776.25;5030018;28;19947;-82
2023/04/28 07:22:02;;;;;;;;;;;;;;;-141.59;100.00;61776.25;5034350;28;19950;-82
2023/04/28 07:24:29;;;;;;;;;;;;;;;-141.59;100.00;61776.25;5032262;28;20060;-82
2023/04/28 07:26:56;;;;;;;;;;;;;;;-141.59;100.00;61776.25;5032129;28;19962;-83
2023/04/28 07:29:23;;;;;;;;;;;;;;;-141.59;100.00;61776.25;5043744;28;20043;-83
2023/04/28 07:31:50;;;;;;;;;;;;;;;-141.59;100.00;61776.25;5044094;28;20002;-82
2023/04/28 07:34:16;;;;;;;;;;;;;;;-141.59;100.00;61776.25;5046408;28;20091;-82
2023/04/28 07:36:43;;;;;;;;;;;;;;;-141.59;100.00;61776.25;5029676;28;19959;-83
2023/04/28 07:39:11;;;;;;;;;;;;;;;-141.59;100.00;61776.25;5039517;28;19986;-82
2023/04/28 07:41:38;;;;;;;;;;;;;;;-141.59;100.00;61776.25;5029517;28;19949;-83
2023/04/28 07:44:07;;;;;;;;;;;;;;;-141.59;100.00;61776.25;5042208;28;19960;-82
2023/04/28 07:46:33;;;;;;;;;;;;;;;-141.59;100.00;61776.25;5042967;28;19949;-82
2023/04/28 07:49:00;;;;;;;;;;;;;;;-141.59;100.00;61776.25;5030368;28;20048;-82
2023/04/28 07:51:27;;;;;;;;;;;;;;;-141.59;100.00;61776.25;5046526;28;19959;-82
2023/04/28 07:53:54;;;;;;;;;;;;;;;-141.59;100.00;61776.25;5031350;28;19962;-83
2023/04/28 07:56:23;;;;;;;;;;;;;;;-141.59;100.00;61776.25;5044233;28;19957;-82
2023/04/28 07:58:50;;;;;;;;;;;;;;;-141.59;100.00;61776.25;5026356;28;19957;-82
2023/04/28 08:01:17;;;;;;;;;;;;;;;-141.59;100.00;61776.25;5027228;28;20132;-83
2023/04/28 08:03:43;;;;;;;;;;;;;;;-141.59;100.00;61776.25;5009258;28;19963;-83
2023/04/28 08:06:10;;;;;;;;;;;;;;;-141.59;100.00;61776.25;5027745;28;19972;-82
2023/04/28 08:08:37;;;;;;;;;;;;;;;-141.59;100.00;61776.25;5021030;28;19959;-82
2023/04/28 08:11:04;;;;;;;;;;;;;;;-141.59;100.00;61776.25;5018189;28;19958;-82
2023/04/28 08:13:32;;;;;;;;;;;;;;;-141.59;100.00;61776.25;5009995;28;19978;-83
2023/04/28 08:16:00;;;;;;;;;;;;;;;-141.59;100.00;61776.25;5023420;28;20189;-83
2023/04/28 08:18:27;;;;;;;;;;;;;;;-141.59;100.00;61776.25;5012419;28;20039;-83
2023/04/28 08:20:53;;;;;;;;;;;;;;;-141.59;100.00;61776.25;5010581;28;19973;-83
2023/04/28 08:23:20;;;;;;;;;;;;;;;-141.59;100.00;61776.25;5020514;28;19961;-82
2023/04/28 08:25:47;;;;;;;;;;;;;;;-141.59;100.00;61776.25;5026891;28;19973;-82
2023/04/28 08:28:14;;;;;;;;;;;;;;;-141.59;100.00;61776.25;5028108;28;19955;-83
2023/04/28 08:30:42;;;;;;;;;;;;;;;-141.59;100.00;61776.25;5000084;28;20039;-82
2023/04/28 08:33:09;;;;;;;;;;;;;;;-141.59;100.00;61776.25;5020196;28;19961;-82
2023/04/28 08:35:35;;;;;;;;;;;;;;;-141.59;100.00;61776.25;5026374;28;19990;-82
2023/04/28 08:38:02;;;;;;;;;;;;;;;-141.59;100.00;61776.25;5027243;28;19960;-82
2023/04/28 08:40:30;;;;;;;;;;;;;;;-141.59;100.00;61776.25;5009287;28;19945;-83
2023/04/28 08:42:57;;;;;;;;;;;;;;;-141.59;100.00;61776.25;5004409;28;20042;-82
2023/04/28 08:45:24;;;;;;;;;;;;;;;-141.59;100.00;61776.25;5024433;28;19979;-83
2023/04/28 08:47:54;;;;;;;;;;;;;;;-141.59;100.00;61776.25;5020127;28;20061;-82
2023/04/28 08:50:21;;;;;;;;;;;;;;;-141.59;100.00;61776.25;5023150;28;20048;-83
2023/04/28 08:52:48;;;;;;;;;;;;;;;-141.59;100.00;61776.25;5021552;28;19945;-82
2023/04/28 08:55:16;;;;;;;;;;;;;;;-141.59;100.00;61776.25;5024680;28;19947;-82
2023/04/28 08:57:43;;;;;;;;;;;;;;;-141.59;100.00;61776.25;5006844;28;20052;-83
2023/04/28 09:00:11;;;;;;;;;;;;;;;-141.59;100.00;61776.25;5009894;28;20053;-83
2023/04/28 09:02:40;;;;;;;;;;;;;;;-141.59;100.00;61776.25;5033669;28;20052;-83
2023/04/28 09:05:09;;;;;;;;;;;;;;;-141.59;100.00;61776.25;5043418;28;19969;-83
2023/04/28 09:07:36;;;;;;;;;;;;;;;-141.59;100.00;61776.25;5046402;28;19954;-81
2023/04/28 09:10:23;;;;;;;;;;;;;;;-141.59;100.00;61776.25;5031348;28;19952;-82
2023/04/28 09:12:52;;;;;;;;;;;;;;;-141.59;100.00;61776.25;5036631;28;20035;-82
2023/04/28 09:15:29;;;;;;;;;;;;;;;-141.59;100.00;61776.25;5045654;28;19977;-83
2023/04/28 09:17:58;;;;;;;;;;;;;;;-141.59;100.00;61776.25;5045410;28;19960;-81
2023/04/28 09:20:26;;;;;;;;;;;;;;;-141.59;100.00;61776.25;5029455;28;19948;-82
2023/04/28 09:22:55;;;;;;;;;;;;;;;-141.59;100.00;61776.25;5038262;28;19955;-83
2023/04/28 09:25:22;;;;;;;;;;;;;;;-141.59;100.00;61776.25;5041519;28;19974;-82
2023/04/28 09:27:50;;;;;;;;;;;;;;;-141.59;100.00;61776.25;5048300;28;19975;-83
2023/04/28 09:30:16;;;;;;;;;;;;;;;-141.59;100.00;61776.25;5044696;28;19954;-83
2023/04/28 09:32:43;;;;;;;;;;;;;;;-141.59;100.00;61776.25;5025100;28;19953;-83
2023/04/28 09:35:10;;;;;;;;;;;;;;;-141.59;100.00;61776.25;5027028;28;19962;-83
2023/04/28 09:37:39;;;;;;;;;;;;;;;-141.59;100.00;61776.25;5045184;28;19949;-84
2023/04/28 09:40:07;;;;;;;;;;;;;;;-141.59;100.00;61776.25;5031585;28;19960;-84
2023/04/28 09:42:35;;;;;;;;;;;;;;;-141.59;100.00;61776.25;5044671;28;19953;-83
2023/04/28 09:45:02;;;;;;;;;;;;;;;-141.59;100.00;61776.25;5030932;28;19966;-82
2023/04/28 09:47:29;;;;;;;;;;;;;;;-141.59;100.00;61776.25;5029780;28;20037;-84
2023/04/28 09:49:56;;;;;;;;;;;;;;;-141.59;100.00;61776.25;5040661;28;19970;-83
2023/04/28 09:52:23;;;;;;;;;;;;;;;-141.59;100.00;61776.25;5037425;28;20002;-84
2023/04/28 09:54:52;;;;;;;;;;;;;;;-141.59;100.00;61776.25;5046136;28;19953;-83
2023/04/28 09:57:19;;;;;;;;;;;;;;;-141.59;100.00;61776.25;5048637;28;20008;-84
2023/04/28 09:59:47;;;;;;;;;;;;;;;-141.59;100.00;61776.25;5029494;28;19956;-82
2023/04/28 10:02:14;;;;;;;;;;;;;;;-141.59;100.00;61776.25;5016167;28;19964;-83
2023/04/28 10:04:41;;;;;;;;;;;;;;;-141.59;100.00;61776.25;5035399;28;19949;-83
2023/04/28 10:07:09;;;;;;;;;;;;;;;-141.59;100.00;61776.25;5040404;28;19952;-84
2023/04/28 10:09:35;;;;;;;;;;;;;;;-141.59;100.00;61776.25;5026334;28;19959;-83
2023/04/28 10:12:04;;;;;;;;;;;;;;;-141.59;100.00;61776.25;5040977;28;19949;-83
2023/04/28 10:14:31;;;;;;;;;;;;;;;-141.59;100.00;61776.25;5027749;28;19974;-83
2023/04/28 10:16:59;;;;;;;;;;;;;;;-141.59;100.00;61776.25;5029072;28;19944;-83
2023/04/28 10:19:25;;;;;;;;;;;;;;;-141.59;100.00;61776.25;5029547;28;19966;-82
2023/04/28 10:22:01;;;;;;;;;;;;;;;-141.59;100.00;61776.25;5034043;28;19955;-83
2023/04/28 10:24:30;;;;;;;;;;;;;;;-141.59;100.00;61776.25;5042806;28;19950;-84
2023/04/28 10:27:05;;;;;;;;;;;;;;;-141.59;100.00;61776.25;5028644;28;20011;-83
2023/04/28 10:29:33;;;;;;;;;;;;;;;-141.59;100.00;61776.25;5033309;28;20327;-84
2023/04/28 10:32:16;;;;;;;;;;;;;;;-141.59;100.00;61776.25;5045836;28;19948;-84
2023/04/28 10:34:42;;;;;;;;;;;;;;;-141.59;100.00;61776.25;5047262;28;19948;-84
2023/04/28 10:37:09;;;;;;;;;;;;;;;-141.59;100.00;61776.25;5019995;28;19951;-83
2023/04/28 10:39:36;;;;;;;;;;;;;;;-141.59;100.00;61776.25;5045393;28;20006;-84
2023/04/28 10:42:05;;;;;;;;;;;;;;;-141.59;100.00;61776.25;5026921;28;19953;-84
2023/04/28 10:44:44;;;;;;;;;;;;;;;-141.59;100.00;61776.25;5042700;28;19950;-84
2023/04/28 10:47:11;;;;;;;;;;;;;;;-141.59;100.00;61776.25;5042045;28;19976;-84
2023/04/28 10:49:56;;;;;;;;;;;;;;;-141.59;100.00;61776.25;5044693;28;19959;-82
2023/04/28 10:52:47;;;;;;;;;;;;;;;-141.59;100.00;61776.25;5042651;28;19955;-83
2023/04/28 10:55:27;;;;;;;;;;;;;;;-141.59;100.00;61776.25;5027551;28;19952;-84
2023/04/28 10:58:09;;;;;;;;;;;;;;;-141.59;100.00;61776.25;5043857;28;19954;-83
2023/04/28 11:00:38;;;;;;;;;;;;;;;-141.59;100.00;61776.25;5018898;28;20047;-83
2023/04/28 11:03:06;;;;;;;;;;;;;;;-141.59;100.00;61776.25;5034593;28;19967;-83
2023/04/28 11:18:04;;;;;;;;;;;;;;;16.49;100.00;96195.28;5034894;28;19992;-83
2023/04/28 11:20:30;;;;;;;;;;;;;;;16.50;100.00;96188.72;5055768;28;20271;-83
2023/04/28 11:22:57;;;;;;;;;;;;;;;16.78;100.00;96195.56;5031884;28;19945;-82
2023/04/28 11:25:27;;;;;;;;;;;;;;;16.68;100.00;96184.66;5019174;28;19966;-82
2023/04/28 11:28:03;;;;;;;;;;;;;;;16.54;100.00;96177.00;5015848;28;19958;-82
2023/04/28 11:30:30;;;;;;;;;;;;;;;16.38;100.00;96197.16;5013434;28;19956;-82
2023/04/28 11:32:56;;;;;;;;;;;;;;;16.51;100.00;96188.44;5024634;28;19951;-83
2023/04/28 11:35:24;;;;;;;;;;;;;;;16.67;100.00;96183.03;5022080;28;19949;-82
2023/04/28 11:38:01;;;;;;;;;;;;;;;16.67;100.00;96172.16;5057701;28;19961;-83
2023/04/28 11:40:28;;;;;;;;;;;;;;;16.76;100.00;96181.41;5055961;28;19978;-82
2023/04/28 11:42:55;;;;;;;;;;;;;;;16.84;100.00;96187.09;5021007;28;19949;-81
2023/04/28 11:45:22;;;;;;;;;;;;;;;16.79;100.00;96175.38;5024623;28;19951;-82
2023/04/28 11:47:48;;;;;;;;;;;;;;;16.91;100.00;96162.31;5053644;28;19970;-82
2023/04/28 11:50:15;;;;;;;;;;;;;;;17.07;100.00;96158.47;5054064;28;19946;-83
2023/04/28 11:52:52;;;;;;;;;;;;;;;17.21;100.00;96162.25;5021377;28;19956;-83
2023/04/28 11:55:19;;;;;;;;;;;;;;;17.42;100.00;96165.75;5029547;28;19949;-82
2023/04/28 11:57:46;;;;;;;;;;;;;;;17.60;100.00;96162.41;5027903;28;20000;-83
2023/04/28 12:00:13;;;;;;;;;;;;;;;17.63;100.00;96166.50;5018130;28;19956;-83
2023/04/28 12:02:40;;;;;;;;;;;;;;;17.81;100.00;96171.34;5018564;28;19948;-83
2023/04/28 12:05:08;;;;;;;;;;;;;;;17.85;100.00;96161.50;5037609;28;19946;-83
2023/04/28 12:07:42;;;;;;;;;;;;;;;17.82;100.00;96166.69;5019386;28;19949;-82
2023/04/28 12:10:14;;;;;;;;;;;;;;;17.74;100.00;96155.25;5021584;28;20010;-83
2023/04/28 12:12:42;;;;;;;;;;;;;;;17.60;100.00;96153.41;5023198;28;20003;-83
2023/04/28 12:15:09;;;;;;;;;;;;;;;17.60;100.00;96137.84;4998995;28;19966;-83
2023/04/28 12:17:37;;;;;;;;;;;;;;;17.68;100.00;96131.81;5020879;28;20028;-84
2023/04/28 12:20:06;;;;;;;;;;;;;;;18.01;100.00;96138.47;4991381;28;19975;-83
2023/04/28 12:22:43;;;;;;;;;;;;;;;18.20;100.00;96140.53;5005855;28;20048;-83
2023/04/28 12:25:11;;;;;;;;;;;;;;;18.28;100.00;96154.44;5000007;28;19954;-83
2023/04/28 12:27:39;;;;;;;;;;;;;;;18.23;100.00;96159.09;5013848;28;19952;-83
2023/04/28 12:30:22;;;;;;;;;;;;;;;18.08;100.00;96165.47;4984437;28;19976;-83
2023/04/28 12:32:49;;;;;;;;;;;;;;;17.89;100.00;96162.56;4976997;28;20043;-83
2023/04/28 12:35:16;;;;;;;;;;;;;;;17.69;100.00;96166.19;4987629;28;20044;-83